Benchland, Montana
Current Conditions -  °F | °C
As of 9:54 PM on Friday 24 Oct 2014 (Local Time) from KLWT Reporting Station
Light Rain Light Rain  
Wind Chill:   Ceiling: 8000
Heat Index:   Visibility: 10mi
Dew Point:   Wind: 8mph
Humidity: 83%   Direction: 160°SSE
Pressure: 30.11"   Gusts: NA
Location:  47.1096°N, 109.884°W
Report Text: KLWT 250354Z AUTO 16007KT 10SM -RA FEW055 OVC080 08/06 A3011 RMK AO2 SLP189 P0002 T00830056
Loading
Personal Weather Stations






























Interactive Weather Map
Tropical Storm Tracking
New forecast layout! Learn more

10-Day Weather Forecast

Advertisements
Track Severe Weather on mobile